createdAt,value
2023-01-29T00:01:44.110Z,92.40
2023-01-29T00:04:11.530Z,92.70
2023-01-29T00:06:40.567Z,92.70
2023-01-29T00:09:08.383Z,92.60
2023-01-29T00:11:36.634Z,92.60
2023-01-29T00:14:05.017Z,93.20
2023-01-29T00:16:32.664Z,92.60
2023-01-29T00:19:05.658Z,92.60
2023-01-29T00:21:34.065Z,92.40
2023-01-29T00:24:03.105Z,92.40
2023-01-29T00:26:30.969Z,92.60
2023-01-29T00:29:00.934Z,92.30
2023-01-29T00:31:29.277Z,92.20
2023-01-29T00:33:57.856Z,92.40
2023-01-29T00:36:26.674Z,92.50
2023-01-29T00:38:59.018Z,92.60
2023-01-29T00:41:51.935Z,92.60
2023-01-29T00:44:38.379Z,92.50
2023-01-29T00:47:09.588Z,92.50
2023-01-29T00:49:51.403Z,92.20
2023-01-29T00:52:26.763Z,92.10
2023-01-29T00:54:57.050Z,92.30
2023-01-29T00:57:28.270Z,92.40
2023-01-29T00:59:56.184Z,92.50
2023-01-29T01:02:43.250Z,92.40
2023-01-29T01:05:15.123Z,92.50
2023-01-29T01:07:45.182Z,92.70
2023-01-29T01:10:21.675Z,93.10
2023-01-29T01:13:01.819Z,92.90
2023-01-29T01:15:41.654Z,92.80
2023-01-29T01:18:09.268Z,92.80
2023-01-29T01:20:37.691Z,92.90
2023-01-29T01:23:05.798Z,93.50
2023-01-29T01:25:33.534Z,93.10
2023-01-29T01:28:01.559Z,93.30
2023-01-29T01:30:29.570Z,93.40
2023-01-29T01:32:57.085Z,93.60
2023-01-29T01:35:24.950Z,93.30
2023-01-29T01:37:52.751Z,93.60
2023-01-29T01:40:23.064Z,93.50
2023-01-29T01:43:00.317Z,93.50
2023-01-29T01:45:36.500Z,93.60
2023-01-29T01:48:26.700Z,93.60
2023-01-29T01:51:00.938Z,93.60
2023-01-29T01:53:37.367Z,93.50
2023-01-29T01:56:08.651Z,93.70
2023-01-29T01:58:40.552Z,93.70
2023-01-29T02:04:28.744Z,93.90
2023-01-29T02:07:18.595Z,94.20
2023-01-29T02:10:04.653Z,94.20
2023-01-29T02:12:33.602Z,94.20
2023-01-29T02:15:01.395Z,94.10
2023-01-29T02:17:29.239Z,94.10
2023-01-29T02:20:11.993Z,94.10
2023-01-29T02:22:49.405Z,94.20
2023-01-29T02:25:40.410Z,94.50
2023-01-29T02:28:27.403Z,94.80
2023-01-29T02:31:09.855Z,94.80
2023-01-29T02:34:11.446Z,94.90
2023-01-29T02:36:57.908Z,95.00
2023-01-29T02:39:38.597Z,95.10
2023-01-29T02:42:19.193Z,95.30
2023-01-29T02:44:54.640Z,95.20
2023-01-29T02:47:25.861Z,95.40
2023-01-29T02:50:03.535Z,95.20
2023-01-29T02:52:54.384Z,95.30
2023-01-29T02:55:25.958Z,95.40
2023-01-29T02:57:57.711Z,95.30
2023-01-29T03:00:31.977Z,95.70
2023-01-29T03:03:16.380Z,96.00
2023-01-29T03:06:05.885Z,96.00
2023-01-29T03:08:42.006Z,95.80
2023-01-29T03:11:16.446Z,95.80
2023-01-29T03:13:51.101Z,95.90
2023-01-29T03:16:28.084Z,96.10
2023-01-29T03:18:59.551Z,96.40
2023-01-29T03:21:53.783Z,96.70
2023-01-29T03:24:55.892Z,96.90
2023-01-29T03:27:49.705Z,96.80
2023-01-29T03:30:38.761Z,96.60
2023-01-29T03:33:18.920Z,96.70
2023-01-29T03:36:10.079Z,96.90
2023-01-29T03:38:37.513Z,97.00
2023-01-29T03:41:21.629Z,97.30
2023-01-29T03:44:00.823Z,97.40
2023-01-29T03:46:36.140Z,97.30
2023-01-29T03:49:14.555Z,97.40
2023-01-29T03:52:03.283Z,97.40
2023-01-29T03:54:57.839Z,97.40
2023-01-29T03:57:39.066Z,97.30
2023-01-29T04:00:21.823Z,97.40
2023-01-29T04:03:04.542Z,97.60
2023-01-29T04:05:37.245Z,97.60
2023-01-29T04:08:25.009Z,97.90
2023-01-29T04:10:56.228Z,97.90
2023-01-29T04:13:25.452Z,97.90
2023-01-29T04:15:58.849Z,98.20
2023-01-29T04:18:28.542Z,98.30
2023-01-29T04:21:09.867Z,98.10
2023-01-29T04:23:38.848Z,97.80
2023-01-29T04:26:31.394Z,97.70
2023-01-29T04:29:03.703Z,97.50
2023-01-29T04:31:57.327Z,97.70
2023-01-29T04:34:34.904Z,97.80
2023-01-29T04:37:14.691Z,97.90
2023-01-29T04:39:52.633Z,97.90
2023-01-29T04:42:24.465Z,98.20
2023-01-29T04:45:20.749Z,98.40
2023-01-29T04:47:53.350Z,98.10
2023-01-29T04:50:43.218Z,98.00
2023-01-29T04:53:17.695Z,97.70
2023-01-29T04:55:49.116Z,97.70
2023-01-29T04:58:29.322Z,97.80
2023-01-29T05:00:58.970Z,97.80
2023-01-29T05:03:28.901Z,98.00
2023-01-29T05:06:01.519Z,98.00
2023-01-29T05:08:31.928Z,98.20
2023-01-29T05:11:00.111Z,98.20
2023-01-29T05:16:37.777Z,98.10
2023-01-29T05:19:05.654Z,98.20
2023-01-29T05:21:34.190Z,98.70
2023-01-29T05:24:20.711Z,99.00
2023-01-29T05:27:08.640Z,99.00
2023-01-29T05:29:36.225Z,98.90
2023-01-29T05:32:05.555Z,98.80
2023-01-29T05:34:41.813Z,98.90
2023-01-29T05:37:11.183Z,99.00
2023-01-29T05:39:38.704Z,99.10
2023-01-29T05:42:06.809Z,99.30
2023-01-29T05:44:34.251Z,99.50
2023-01-29T05:47:03.248Z,99.60
2023-01-29T05:49:30.898Z,99.60
2023-01-29T05:51:58.913Z,99.60
2023-01-29T05:54:27.092Z,99.20
2023-01-29T05:57:01.531Z,99.20
2023-01-29T05:59:31.058Z,99.10
2023-01-29T06:01:59.053Z,99.10
2023-01-29T06:04:26.899Z,99.30
2023-01-29T06:06:54.513Z,99.20
2023-01-29T06:09:29.847Z,99.30
2023-01-29T06:11:57.731Z,99.40
2023-01-29T06:14:48.172Z,99.60
2023-01-29T06:17:16.030Z,99.70
2023-01-29T06:19:43.736Z,99.40
2023-01-29T06:22:18.788Z,99.30
2023-01-29T06:24:46.905Z,99.20
2023-01-29T06:27:14.712Z,99.30
2023-01-29T06:29:46.352Z,99.40
2023-01-29T06:32:17.216Z,99.60
2023-01-29T06:34:44.764Z,99.70
2023-01-29T06:37:13.664Z,99.50
2023-01-29T06:39:41.461Z,99.50
2023-01-29T06:42:10.445Z,99.50
2023-01-29T06:44:37.970Z,99.70
2023-01-29T06:47:06.182Z,99.90
2023-01-29T06:49:33.630Z,99.90
2023-01-29T06:52:01.272Z,99.90
2023-01-29T06:54:29.646Z,99.90
2023-01-29T06:56:59.602Z,99.90
2023-01-29T06:59:27.476Z,99.90
2023-01-29T07:01:55.008Z,99.90
2023-01-29T07:04:23.078Z,99.90
2023-01-29T07:06:50.921Z,99.90
2023-01-29T07:09:18.951Z,99.90
2023-01-29T07:11:46.755Z,99.90
2023-01-29T07:14:14.463Z,99.90
2023-01-29T07:16:41.897Z,99.90
2023-01-29T07:19:09.443Z,99.90
2023-01-29T07:22:01.059Z,99.90
2023-01-29T07:24:29.969Z,99.90
2023-01-29T07:26:57.828Z,99.90
2023-01-29T07:29:25.627Z,99.90
2023-01-29T07:31:53.738Z,99.90
2023-01-29T07:34:21.870Z,99.90
2023-01-29T07:36:49.599Z,99.90
2023-01-29T07:39:17.867Z,99.90
2023-01-29T07:41:45.141Z,99.90
2023-01-29T07:44:14.993Z,99.90
2023-01-29T07:46:42.699Z,99.90
2023-01-29T07:49:10.819Z,99.90
2023-01-29T07:51:38.533Z,99.90
2023-01-29T07:54:06.814Z,99.90
2023-01-29T07:56:35.059Z,99.90
2023-01-29T07:59:02.560Z,99.90
2023-01-29T08:01:30.194Z,99.90
2023-01-29T08:04:00.705Z,99.90
2023-01-29T08:06:28.248Z,99.90
2023-01-29T08:08:57.515Z,99.90
2023-01-29T08:11:45.512Z,99.90
2023-01-29T08:14:13.355Z,99.90
2023-01-29T08:16:41.382Z,99.90
2023-01-29T08:19:09.044Z,99.90
2023-01-29T08:21:36.749Z,99.80
2023-01-29T08:24:05.485Z,99.80
2023-01-29T08:26:33.820Z,99.30
2023-01-29T08:29:05.059Z,99.30
2023-01-29T08:31:33.733Z,99.40
2023-01-29T08:34:05.187Z,99.30
2023-01-29T08:36:32.974Z,99.00
2023-01-29T08:39:02.182Z,99.40
2023-01-29T08:41:29.967Z,99.10
2023-01-29T08:44:00.434Z,99.00
2023-01-29T08:46:28.328Z,98.90
2023-01-29T08:48:56.377Z,98.60
2023-01-29T08:51:26.715Z,98.40
2023-01-29T08:54:13.234Z,98.20
2023-01-29T08:56:40.802Z,98.00
2023-01-29T08:59:09.726Z,97.50
2023-01-29T09:01:40.191Z,97.10
2023-01-29T09:04:08.434Z,97.00
2023-01-29T09:06:36.021Z,97.00
2023-01-29T09:09:03.742Z,96.50
2023-01-29T09:11:35.812Z,95.60
2023-01-29T09:14:03.768Z,95.10
2023-01-29T09:16:32.078Z,95.00
2023-01-29T09:19:00.479Z,94.80
2023-01-29T09:21:28.051Z,94.90
2023-01-29T09:23:55.863Z,94.60
2023-01-29T09:26:24.097Z,94.60
2023-01-29T09:28:51.445Z,95.40
2023-01-29T09:31:23.041Z,95.70
2023-01-29T09:33:51.335Z,96.00
2023-01-29T09:36:19.242Z,96.70
2023-01-29T09:38:47.049Z,97.60
2023-01-29T09:41:41.849Z,97.80
2023-01-29T09:44:13.257Z,98.10
2023-01-29T09:46:48.030Z,98.00
2023-01-29T09:49:22.404Z,99.10
2023-01-29T09:51:52.052Z,98.60
2023-01-29T09:54:24.623Z,98.60
2023-01-29T09:57:02.823Z,98.90
2023-01-29T09:59:32.692Z,99.00
2023-01-29T10:02:09.991Z,99.10
2023-01-29T10:05:00.190Z,99.30
2023-01-29T10:08:05.794Z,99.60
2023-01-29T10:11:07.579Z,99.70
2023-01-29T10:13:58.657Z,99.90
2023-01-29T10:16:46.782Z,99.90
2023-01-29T10:19:30.153Z,99.90
2023-01-29T10:22:04.452Z,99.90
2023-01-29T10:24:39.906Z,99.90
2023-01-29T10:27:16.152Z,99.90
2023-01-29T10:29:46.219Z,99.60
2023-01-29T10:32:19.708Z,99.30
2023-01-29T10:35:03.486Z,98.70
2023-01-29T10:37:42.714Z,97.60
2023-01-29T10:40:23.153Z,98.20
2023-01-29T10:43:35.208Z,98.10
2023-01-29T10:46:23.695Z,98.30
2023-01-29T10:48:58.278Z,97.50
2023-01-29T10:51:48.107Z,98.50
2023-01-29T10:54:19.499Z,98.50
2023-01-29T10:57:05.806Z,98.10
2023-01-29T10:59:58.255Z,98.20
2023-01-29T11:02:27.114Z,98.30
2023-01-29T11:04:54.644Z,97.30
2023-01-29T11:07:23.590Z,97.70
2023-01-29T11:10:04.092Z,96.50
2023-01-29T11:12:34.091Z,96.50
2023-01-29T11:15:14.789Z,96.20
2023-01-29T11:18:07.363Z,95.50
2023-01-29T11:20:35.120Z,95.60
2023-01-29T11:23:07.694Z,95.00
2023-01-29T11:25:37.122Z,95.20
2023-01-29T11:28:06.496Z,95.70
2023-01-29T11:30:40.614Z,96.30
2023-01-29T11:33:24.883Z,96.40
2023-01-29T11:35:58.370Z,95.80
2023-01-29T11:38:28.515Z,95.30
2023-01-29T11:41:12.144Z,95.50
2023-01-29T11:43:41.110Z,95.30
2023-01-29T11:46:14.759Z,95.40
2023-01-29T11:48:56.407Z,95.50
2023-01-29T11:51:28.648Z,95.50
2023-01-29T11:54:02.843Z,94.60
2023-01-29T11:56:37.569Z,95.20
2023-01-29T11:59:06.548Z,95.20
2023-01-29T12:01:37.894Z,95.20
2023-01-29T12:04:24.152Z,95.30
2023-01-29T12:06:54.154Z,94.70
2023-01-29T12:09:26.175Z,94.70
2023-01-29T12:11:54.402Z,94.70
2023-01-29T12:14:36.761Z,95.20
2023-01-29T12:17:20.288Z,95.30
2023-01-29T12:20:00.612Z,94.90
2023-01-29T12:22:38.348Z,94.90
2023-01-29T12:25:10.172Z,94.00
2023-01-29T12:27:58.425Z,93.50
2023-01-29T12:30:35.978Z,93.70
2023-01-29T12:33:16.171Z,92.90
2023-01-29T12:35:51.388Z,92.20
2023-01-29T12:38:23.665Z,91.50
2023-01-29T12:40:58.364Z,91.50
2023-01-29T12:43:49.536Z,91.60
2023-01-29T12:46:33.432Z,91.20
2023-01-29T12:49:04.634Z,91.70
2023-01-29T12:51:36.536Z,90.70
2023-01-29T12:54:13.975Z,88.20
2023-01-29T12:56:46.755Z,87.80
2023-01-29T12:59:30.452Z,86.30
2023-01-29T13:02:23.405Z,81.00
2023-01-29T13:05:00.520Z,82.00
2023-01-29T13:07:35.297Z,84.80
2023-01-29T13:10:07.775Z,83.80
2023-01-29T13:12:36.803Z,81.90
2023-01-29T13:15:23.296Z,79.80
2023-01-29T13:18:00.555Z,80.20
2023-01-29T13:20:34.537Z,78.50
2023-01-29T13:23:06.005Z,75.40
2023-01-29T13:25:34.138Z,76.70
2023-01-29T13:28:04.982Z,75.40
2023-01-29T13:30:36.565Z,74.80
2023-01-29T13:33:10.225Z,73.80
2023-01-29T13:35:42.037Z,73.10
2023-01-29T13:38:29.092Z,69.50
2023-01-29T13:41:03.911Z,68.90
2023-01-29T13:43:36.800Z,68.90
2023-01-29T13:46:12.001Z,70.40
2023-01-29T13:48:45.247Z,67.80
2023-01-29T13:51:17.145Z,68.20
2023-01-29T13:53:48.721Z,66.70
2023-01-29T13:56:39.189Z,65.60
2023-01-29T13:59:09.336Z,64.60
2023-01-29T14:01:53.153Z,61.60
2023-01-29T14:04:34.432Z,61.00
2023-01-29T14:07:06.638Z,58.80
2023-01-29T14:09:44.331Z,55.60
2023-01-29T14:12:28.234Z,54.00
2023-01-29T14:15:00.452Z,52.80
2023-01-29T14:17:29.367Z,53.40
2023-01-29T14:20:07.803Z,50.10
2023-01-29T14:22:38.328Z,48.60
2023-01-29T14:25:07.636Z,46.60
2023-01-29T14:27:37.689Z,46.10
2023-01-29T14:30:11.987Z,46.10
2023-01-29T14:32:40.840Z,44.30
2023-01-29T14:35:16.367Z,43.50
2023-01-29T14:37:47.521Z,41.80
2023-01-29T14:40:22.114Z,41.80
2023-01-29T14:43:04.407Z,40.20
2023-01-29T14:45:35.259Z,39.90
2023-01-29T14:48:21.957Z,40.20
2023-01-29T14:50:52.258Z,39.00
2023-01-29T14:53:45.990Z,38.90
2023-01-29T14:56:25.340Z,38.30
2023-01-29T14:59:00.119Z,39.50
2023-01-29T15:01:38.041Z,39.50
2023-01-29T15:04:13.092Z,39.40
2023-01-29T15:07:04.631Z,39.50
2023-01-29T15:09:51.049Z,38.60
2023-01-29T15:12:43.563Z,39.80
2023-01-29T15:15:35.099Z,41.60
2023-01-29T15:18:15.365Z,43.20
2023-01-29T15:21:05.767Z,44.40
2023-01-29T15:23:35.048Z,45.60
2023-01-29T15:26:09.611Z,46.40
2023-01-29T15:28:38.848Z,46.30
2023-01-29T15:31:15.297Z,47.20
2023-01-29T15:33:46.162Z,47.70
2023-01-29T15:36:23.812Z,48.20
2023-01-29T15:39:25.122Z,48.30
2023-01-29T15:42:12.139Z,48.10
2023-01-29T15:44:45.935Z,48.40
2023-01-29T15:47:23.056Z,48.60
2023-01-29T15:49:51.611Z,48.70
2023-01-29T15:52:26.970Z,50.10
2023-01-29T15:55:06.861Z,50.70
2023-01-29T15:57:44.242Z,51.30
2023-01-29T16:00:26.510Z,52.40
2023-01-29T16:03:03.409Z,54.10
2023-01-29T16:05:34.880Z,55.00
2023-01-29T16:08:03.497Z,56.00
2023-01-29T16:10:33.002Z,57.20
2023-01-29T16:13:01.587Z,58.60
2023-01-29T16:15:40.582Z,59.50
2023-01-29T16:18:39.562Z,60.70
2023-01-29T16:21:33.216Z,62.10
2023-01-29T16:27:08.805Z,64.60
2023-01-29T16:29:36.666Z,65.80
2023-01-29T16:32:06.683Z,67.10
2023-01-29T16:34:43.305Z,69.10
2023-01-29T16:37:24.555Z,70.10
2023-01-29T16:39:53.185Z,70.10
2023-01-29T16:42:26.398Z,71.00
2023-01-29T16:45:03.244Z,71.70
2023-01-29T16:47:34.084Z,72.80
2023-01-29T16:50:05.267Z,74.50
2023-01-29T16:52:35.273Z,75.70
2023-01-29T16:55:21.808Z,76.80
2023-01-29T16:57:54.943Z,77.80
2023-01-29T17:00:26.459Z,78.90
2023-01-29T17:02:57.887Z,80.30
2023-01-29T17:05:34.315Z,81.20
2023-01-29T17:08:07.205Z,82.30
2023-01-29T17:10:36.528Z,83.30
2023-01-29T17:13:08.182Z,84.10
2023-01-29T17:15:45.804Z,84.90
2023-01-29T17:18:20.538Z,87.20
2023-01-29T17:20:49.050Z,87.20
2023-01-29T17:23:17.241Z,88.90
2023-01-29T17:25:46.556Z,88.60
2023-01-29T17:28:18.048Z,89.20
2023-01-29T17:31:00.342Z,89.90
2023-01-29T17:33:22.128Z,90.30
2023-01-29T17:35:51.285Z,90.60
2023-01-29T17:38:26.485Z,90.80
2023-01-29T17:41:03.345Z,91.10
2023-01-29T17:43:33.045Z,91.50
2023-01-29T17:46:00.782Z,91.80
2023-01-29T17:48:30.595Z,92.00
2023-01-29T17:51:02.755Z,92.10
2023-01-29T17:53:45.509Z,92.40
2023-01-29T17:56:02.528Z,92.60
2023-01-29T17:58:30.457Z,92.90
2023-01-29T18:00:59.101Z,93.20
2023-01-29T18:03:28.175Z,93.40
2023-01-29T18:05:56.125Z,93.70
2023-01-29T18:08:36.221Z,94.00
2023-01-29T18:11:24.129Z,94.20
2023-01-29T18:14:14.156Z,94.40
2023-01-29T18:16:39.342Z,94.60
2023-01-29T18:19:15.751Z,94.70
2023-01-29T18:21:43.547Z,94.90
2023-01-29T18:24:11.796Z,95.20
2023-01-29T18:26:39.991Z,95.30
2023-01-29T18:29:08.143Z,95.60
2023-01-29T18:31:42.951Z,96.30
2023-01-29T18:34:10.765Z,95.90
2023-01-29T18:36:40.262Z,96.00
2023-01-29T18:39:08.180Z,96.30
2023-01-29T18:41:36.002Z,96.50
2023-01-29T18:44:03.660Z,96.70
2023-01-29T18:46:32.098Z,96.90
2023-01-29T18:48:59.858Z,97.20
2023-01-29T18:51:27.593Z,97.40
2023-01-29T18:54:05.786Z,97.50
2023-01-29T18:57:06.269Z,97.70
2023-01-29T18:59:25.332Z,98.00
2023-01-29T19:01:54.285Z,98.00
2023-01-29T19:04:22.279Z,98.10
2023-01-29T19:06:51.242Z,98.30
2023-01-29T19:09:22.297Z,98.40
2023-01-29T19:11:50.266Z,98.40
2023-01-29T19:14:18.827Z,98.50
2023-01-29T19:16:46.727Z,98.60
2023-01-29T19:19:34.530Z,98.90
2023-01-29T19:22:05.484Z,99.10
2023-01-29T19:24:35.550Z,99.30
2023-01-29T19:27:04.021Z,99.50
2023-01-29T19:29:33.083Z,99.70
2023-01-29T19:32:00.862Z,99.80
2023-01-29T19:34:28.719Z,99.80
2023-01-29T19:36:57.165Z,99.90
2023-01-29T19:39:38.330Z,99.90
2023-01-29T19:42:06.679Z,99.90
2023-01-29T19:44:35.445Z,99.90
2023-01-29T19:47:04.143Z,99.90
2023-01-29T19:49:35.430Z,99.90
2023-01-29T19:52:04.066Z,99.90
2023-01-29T19:54:31.655Z,99.90
2023-01-29T19:56:59.724Z,99.90
2023-01-29T19:59:27.517Z,99.90
2023-01-29T20:01:55.802Z,99.90
2023-01-29T20:04:25.015Z,99.90
2023-01-29T20:09:32.705Z,99.90
2023-01-29T20:12:00.210Z,99.90
2023-01-29T20:14:28.029Z,99.90
2023-01-29T20:16:56.348Z,99.90
2023-01-29T20:19:25.304Z,99.90
2023-01-29T20:21:53.749Z,99.90
2023-01-29T20:24:25.709Z,99.90
2023-01-29T20:26:53.494Z,99.90
2023-01-29T20:29:23.226Z,99.90
2023-01-29T20:31:51.917Z,99.90
2023-01-29T20:34:20.025Z,99.90
2023-01-29T20:36:47.838Z,99.90
2023-01-29T20:39:16.061Z,99.90
2023-01-29T20:41:44.105Z,99.90
2023-01-29T20:44:32.275Z,99.90
2023-01-29T20:47:01.851Z,99.90
2023-01-29T20:49:32.357Z,99.90
2023-01-29T20:52:00.150Z,99.90
2023-01-29T20:54:41.388Z,99.90
2023-01-29T20:57:09.075Z,99.90
2023-01-29T20:59:36.955Z,99.90
2023-01-29T21:02:06.228Z,99.90
2023-01-29T21:04:34.678Z,99.90
2023-01-29T21:07:03.032Z,99.90
2023-01-29T21:09:32.271Z,99.90
2023-01-29T21:11:59.598Z,99.90
2023-01-29T21:14:28.307Z,99.90
2023-01-29T21:16:59.424Z,99.90
2023-01-29T21:19:28.099Z,99.90
2023-01-29T21:21:58.203Z,99.90
2023-01-29T21:24:27.064Z,99.90
2023-01-29T21:26:54.355Z,99.90
2023-01-29T21:29:22.585Z,99.90
2023-01-29T21:31:50.426Z,99.90
2023-01-29T21:34:18.574Z,99.90
2023-01-29T21:36:47.037Z,99.90
2023-01-29T21:39:17.959Z,99.90
2023-01-29T21:42:17.862Z,99.90
2023-01-29T21:44:46.334Z,99.90
2023-01-29T21:47:14.215Z,99.90
2023-01-29T21:49:44.102Z,99.90
2023-01-29T21:52:13.269Z,99.90
2023-01-29T21:54:54.611Z,99.90
2023-01-29T21:57:24.219Z,99.90
2023-01-29T21:59:53.639Z,99.90
2023-01-29T22:02:22.881Z,99.90
2023-01-29T22:04:54.168Z,99.90
2023-01-29T22:07:32.593Z,99.90
2023-01-29T22:10:01.756Z,99.90
2023-01-29T22:12:30.051Z,99.90
2023-01-29T22:14:57.575Z,99.90
2023-01-29T22:17:26.162Z,99.90
2023-01-29T22:19:54.049Z,99.90
2023-01-29T22:22:22.013Z,99.90
2023-01-29T22:24:54.425Z,99.90
2023-01-29T22:27:22.999Z,99.90
2023-01-29T22:29:52.093Z,99.90
2023-01-29T22:32:21.123Z,99.90
2023-01-29T22:34:48.925Z,99.90
2023-01-29T22:37:16.923Z,99.90
2023-01-29T22:39:51.645Z,99.90
2023-01-29T22:42:20.210Z,99.90
2023-01-29T22:44:51.775Z,99.90
2023-01-29T22:47:19.377Z,99.90
2023-01-29T22:49:51.571Z,99.90
2023-01-29T22:52:35.226Z,99.90
2023-01-29T22:55:03.098Z,99.90
2023-01-29T22:57:32.627Z,99.90
2023-01-29T23:00:00.445Z,99.90
2023-01-29T23:02:27.835Z,99.90
2023-01-29T23:04:56.385Z,99.90
2023-01-29T23:07:24.305Z,99.90
2023-01-29T23:09:52.095Z,99.90
2023-01-29T23:12:20.240Z,99.90
2023-01-29T23:14:48.055Z,99.90
2023-01-29T23:17:16.680Z,99.90
2023-01-29T23:19:44.538Z,99.90
2023-01-29T23:22:12.406Z,99.90
2023-01-29T23:24:40.432Z,99.90
2023-01-29T23:27:14.794Z,99.90
2023-01-29T23:29:59.768Z,99.90
2023-01-29T23:32:28.040Z,99.90
2023-01-29T23:34:55.525Z,99.90
2023-01-29T23:37:23.561Z,99.90
2023-01-29T23:39:51.181Z,99.90
2023-01-29T23:42:19.063Z,99.90
2023-01-29T23:44:46.468Z,99.90
2023-01-29T23:47:14.020Z,99.90
2023-01-29T23:49:42.375Z,99.90
2023-01-29T23:52:10.573Z,99.90
2023-01-29T23:54:58.236Z,99.90
2023-01-29T23:57:25.995Z,99.90
2023-01-29T23:59:53.425Z,99.90
